Time;durP1;ratioP1;P1;durP2;ratioP2;P2;SDS_P1;SDS_P2;PMS_P1;PMS_P2;Temp;Humidity;BMP_temperature;BMP_pressure;BME280_temperature;BME280_humidity;BME280_pressure;Samples;Min_cycle;Max_cycle;Signal;HPM_P1;HPM_P2
2021/04/24 00:01:14;;;;;;;13.27;9.37;;;8.00;9.20;9.10;101450.00;;;;4909489;29;20457;-77
2021/04/24 00:03:41;;;;;;;12.30;8.37;;;8.10;9.70;9.00;101451.00;;;;4924219;29;21070;-75
2021/04/24 00:06:08;;;;;;;14.43;10.07;;;7.90;9.90;9.00;68247.00;;;;4924159;29;20573;-74
2021/04/24 00:08:37;;;;;;;14.40;9.30;;;7.80;10.80;8.90;101440.00;;;;4909971;29;20485;-76
2021/04/24 00:11:05;;;;;;;13.97;9.50;;;7.80;10.70;8.90;101449.00;;;;4907426;29;20461;-76
2021/04/24 00:13:33;;;;;;;16.07;9.57;;;7.80;10.30;8.90;101447.00;;;;4911035;29;20453;-81
2021/04/24 00:16:00;;;;;;;14.00;8.83;;;7.80;9.80;8.90;101453.00;;;;4924039;29;20474;-74
2021/04/24 00:18:30;;;;;;;13.20;9.77;;;7.90;10.20;8.90;101431.00;;;;4916952;29;20454;-78
2021/04/24 00:20:57;;;;;;;15.00;8.83;;;7.80;10.40;8.80;101446.00;;;;4909831;29;20450;-74
2021/04/24 00:23:25;;;;;;;12.27;9.40;;;7.80;10.60;8.80;101450.00;;;;4910174;29;20967;-76
2021/04/24 00:25:52;;;;;;;14.53;10.60;;;7.70;10.70;8.80;101447.00;;;;4923733;29;21027;-77
2021/04/24 00:28:20;;;;;;;12.47;8.53;;;7.70;10.80;8.80;101455.00;;;;4910311;29;20975;-75
2021/04/24 00:30:48;;;;;;;15.40;10.43;;;7.70;10.60;52.70;160456.00;;;;4908721;29;20494;-74
2021/04/24 00:33:15;;;;;;;13.43;9.67;;;7.70;10.70;8.80;101436.00;;;;4909670;29;20443;-73
2021/04/24 00:35:43;;;;;;;14.27;9.63;;;7.60;11.10;8.80;101433.00;;;;4909959;29;20627;-74
2021/04/24 00:38:11;;;;;;;15.40;10.10;;;7.60;10.80;8.70;101427.00;;;;4919329;29;20509;-76
2021/04/24 00:40:39;;;;;;;15.80;10.90;;;7.60;10.70;8.70;101437.00;;;;4910232;29;20454;-76
2021/04/24 00:43:06;;;;;;;14.90;11.37;;;7.70;10.40;8.70;101424.00;;;;4936495;29;20474;-76
2021/04/24 00:45:35;;;;;;;12.30;8.80;;;7.70;11.00;8.70;101444.00;;;;4922113;29;20482;-75
2021/04/24 00:48:02;;;;;;;21.03;13.63;;;7.60;10.70;8.70;101434.00;;;;4920351;29;20482;-79
2021/04/24 00:50:33;;;;;;;12.63;10.20;;;7.60;11.00;8.60;101432.00;;;;4924491;29;20473;-76
2021/04/24 00:53:02;;;;;;;11.53;9.23;;;7.60;11.10;8.60;68171.00;;;;4909646;29;20546;-76
2021/04/24 00:55:29;;;;;;;16.70;10.83;;;7.50;10.90;8.60;101268.00;;;;4923062;29;20477;-74
2021/04/24 00:57:58;;;;;;;12.63;9.87;;;7.60;11.00;8.60;101424.00;;;;4907978;29;20994;-74
2021/04/24 01:00:26;;;;;;;14.70;10.40;;;7.50;11.30;217.30;160398.00;;;;4907329;29;20462;-73
2021/04/24 01:02:57;;;;;;;15.67;10.20;;;7.50;11.70;8.60;101433.00;;;;4906496;29;20473;-75
2021/04/24 01:05:28;;;;;;;13.07;9.93;;;7.50;11.60;8.60;101419.00;;;;4915265;29;20493;-79
2021/04/24 01:07:55;;;;;;;12.73;10.03;;;7.50;11.40;8.50;101416.00;;;;4910682;29;20454;-74
2021/04/24 01:10:23;;;;;;;14.90;10.70;;;7.50;11.60;8.50;101414.00;;;;4926697;29;20490;-74
2021/04/24 01:12:50;;;;;;;14.73;10.20;;;7.40;12.00;8.40;101417.00;;;;4927533;29;20485;-75
2021/04/24 01:15:19;;;;;;;15.80;10.30;;;7.30;12.40;8.40;101425.00;;;;4911035;29;20476;-75
2021/04/24 01:17:47;;;;;;;14.70;10.27;;;7.30;12.10;8.40;101414.00;;;;4910441;29;20462;-76
2021/04/24 01:20:17;;;;;;;16.23;10.33;;;7.30;12.20;8.40;101420.00;;;;4901323;29;20462;-76
2021/04/24 01:22:47;;;;;;;13.63;10.20;;;7.30;12.60;8.40;101421.00;;;;4911196;29;20552;-76
2021/04/24 01:25:17;;;;;;;14.80;10.77;;;7.30;12.30;8.40;101419.00;;;;4908880;29;21620;-76
2021/04/24 01:27:48;;;;;;;15.27;11.40;;;7.40;12.30;8.40;101421.00;;;;4916141;29;20462;-76
2021/04/24 01:30:19;;;;;;;16.00;11.17;;;7.30;12.50;8.30;101413.00;;;;4898022;29;20585;-77
2021/04/24 01:32:47;;;;;;;12.70;10.10;;;7.30;12.80;8.30;101418.00;;;;4907346;29;20464;-76
2021/04/24 01:35:19;;;;;;;14.07;10.10;;;7.30;13.00;8.30;101417.00;;;;4907885;29;21225;-77
2021/04/24 01:37:47;;;;;;;18.00;10.60;;;7.30;13.00;8.30;101428.00;;;;4908515;29;20454;-76
2021/04/24 01:40:16;;;;;;;12.33;9.97;;;7.20;13.20;8.30;101420.00;;;;4921772;29;21104;-77
2021/04/24 01:42:44;;;;;;;12.70;10.33;;;7.20;13.20;8.30;101420.00;;;;4913646;29;20481;-76
2021/04/24 01:45:15;;;;;;;16.20;10.77;;;7.20;13.20;8.30;101419.00;;;;4906949;29;20541;-76
2021/04/24 01:47:45;;;;;;;13.47;10.70;;;7.20;13.20;8.20;101416.00;;;;4906216;29;20477;-77
2021/04/24 01:50:15;;;;;;;13.93;10.53;;;7.20;13.10;8.20;101416.00;;;;4922192;29;20474;-76
2021/04/24 01:52:44;;;;;;;13.90;10.63;;;7.20;13.40;8.20;101418.00;;;;4908224;29;20446;-76
2021/04/24 01:55:15;;;;;;;14.03;10.23;;;7.20;13.70;8.20;101425.00;;;;4907224;29;21062;-74
2021/04/24 01:57:45;;;;;;;15.60;11.70;;;7.20;13.50;8.20;101415.00;;;;4899406;29;20463;-76
2021/04/24 02:00:22;;;;;;;11.73;9.63;;;7.00;13.80;8.20;101417.00;;;;4904297;29;20476;-76
2021/04/24 02:02:49;;;;;;;15.90;10.80;;;7.10;14.00;8.10;101410.00;;;;4899014;29;20442;-75
2021/04/24 02:05:17;;;;;;;16.67;11.10;;;7.10;14.10;8.20;101416.00;;;;4905851;29;21617;-79
2021/04/24 02:07:57;;;;;;;14.30;10.50;;;7.20;13.80;8.10;101411.00;;;;4905272;29;20462;-78
2021/04/24 02:10:27;;;;;;;18.67;11.00;;;7.10;14.30;8.10;101406.00;;;;4906614;29;20481;-79
2021/04/24 02:12:59;;;;;;;16.60;11.07;;;7.00;14.50;8.10;101420.00;;;;4906346;29;20502;-74
2021/04/24 02:15:27;;;;;;;13.97;10.50;;;7.10;14.40;8.10;101407.00;;;;4907582;29;20876;-74
2021/04/24 02:17:54;;;;;;;20.50;11.30;;;7.00;14.90;8.00;101414.00;;;;4905897;29;21164;-79
2021/04/24 02:20:22;;;;;;;17.03;11.20;;;7.00;14.60;8.00;101409.00;;;;4905657;29;20462;-75
2021/04/24 02:22:50;;;;;;;14.73;11.60;;;7.00;14.90;8.00;101403.00;;;;4907603;29;20466;-75
2021/04/24 02:25:19;;;;;;;18.70;12.70;;;6.90;15.00;8.00;101401.00;;;;4905592;29;20500;-74
2021/04/24 02:27:48;;;;;;;16.93;11.43;;;6.90;15.30;7.90;101407.00;;;;4906713;29;20489;-74
2021/04/24 02:30:19;;;;;;;18.57;11.80;;;6.80;15.50;7.90;101412.00;;;;4905243;29;20485;-77
2021/04/24 02:32:46;;;;;;;16.57;12.80;;;6.80;16.10;7.90;101392.00;;;;4921119;29;20566;-75
2021/04/24 02:35:18;;;;;;;16.10;12.43;;;6.80;16.40;7.80;101391.00;;;;4907407;29;20484;-78
2021/04/24 02:37:45;;;;;;;17.03;12.67;;;6.70;17.00;7.80;101403.00;;;;4920940;29;21438;-79
2021/04/24 02:40:16;;;;;;;15.27;12.00;;;6.70;17.30;7.70;101405.00;;;;4904528;29;20484;-79
2021/04/24 02:42:43;;;;;;;18.33;11.80;;;6.60;17.30;7.70;101413.00;;;;4920607;29;20707;-75
2021/04/24 02:45:15;;;;;;;14.20;11.77;;;6.50;18.00;7.70;101409.00;;;;4905749;29;20490;-75
2021/04/24 02:47:44;;;;;;;18.87;12.03;;;6.50;18.00;7.70;101391.00;;;;4913472;29;20450;-76
2021/04/24 02:50:16;;;;;;;18.20;11.90;;;6.40;18.20;7.70;101409.00;;;;4897468;29;20579;-75
2021/04/24 02:52:44;;;;;;;14.67;11.57;;;6.40;18.40;7.70;101400.00;;;;4922173;29;20498;-76
2021/04/24 02:55:14;;;;;;;21.90;12.77;;;6.40;18.60;7.60;101398.00;;;;4906160;29;20500;-75
2021/04/24 02:57:41;;;;;;;18.60;13.13;;;6.40;19.00;7.60;101398.00;;;;4905807;29;20473;-75
2021/04/24 03:00:14;;;;;;;19.23;12.43;;;6.40;19.80;7.70;101409.00;;;;4903307;29;20512;-77
2021/04/24 03:02:42;;;;;;;16.57;12.60;;;6.40;19.30;217.30;159970.00;;;;4904959;29;20469;-77
2021/04/24 03:05:12;;;;;;;15.47;12.33;;;6.40;18.90;7.60;101405.00;;;;4908900;29;20611;-77
2021/04/24 03:07:40;;;;;;;14.70;11.80;;;6.40;18.90;7.60;101386.00;;;;4909189;29;20450;-76
2021/04/24 03:10:10;;;;;;;16.33;11.93;;;6.40;19.30;7.60;101378.00;;;;4909096;29;20490;-76
2021/04/24 03:12:38;;;;;;;16.60;13.20;;;6.40;18.90;7.60;101388.00;;;;4918058;29;20513;-75
2021/04/24 03:15:07;;;;;;;19.07;13.07;;;6.40;19.00;7.60;101403.00;;;;4923888;29;20482;-76
2021/04/24 03:17:36;;;;;;;15.20;11.83;;;6.40;19.20;7.60;67938.00;;;;4908132;29;21225;-76
2021/04/24 03:20:07;;;;;;;16.33;12.23;;;6.40;19.10;7.60;101394.00;;;;4909235;29;20484;-75
2021/04/24 03:22:35;;;;;;;17.90;12.33;;;6.40;19.00;7.60;101400.00;;;;4907590;29;20985;-76
2021/04/24 03:25:03;;;;;;;22.00;13.10;;;6.40;18.70;7.60;101390.00;;;;4906493;29;21699;-76
2021/04/24 03:27:31;;;;;;;19.03;12.40;;;6.40;18.70;7.60;101390.00;;;;4907759;29;20832;-75
2021/04/24 03:29:58;;;;;;;24.23;13.50;;;6.40;18.50;7.60;101385.00;;;;4906185;29;20478;-75
2021/04/24 03:32:26;;;;;;;14.97;12.13;;;6.50;18.40;217.30;159950.00;;;;4906299;29;20458;-75
2021/04/24 03:34:54;;;;;;;17.67;12.10;;;6.50;18.30;7.60;101390.00;;;;4914992;29;20485;-77
2021/04/24 03:37:22;;;;;;;17.93;12.23;;;6.50;18.40;7.60;101380.00;;;;4908580;29;20464;-77
2021/04/24 03:39:49;;;;;;;17.17;12.70;;;6.50;18.20;217.30;159915.00;;;;4907304;29;20459;-75
2021/04/24 03:42:16;;;;;;;16.33;12.90;;;6.50;17.70;7.50;101394.00;;;;4907483;29;20472;-76
2021/04/24 03:44:44;;;;;;;16.57;11.80;;;6.50;17.90;7.50;101382.00;;;;4906888;29;20482;-75
2021/04/24 03:47:15;;;;;;;17.20;12.27;;;6.50;17.80;7.50;101378.00;;;;4907929;29;20462;-76
2021/04/24 03:49:43;;;;;;;20.00;11.73;;;6.40;18.00;7.50;101408.00;;;;4913296;29;20537;-76
2021/04/24 03:52:11;;;;;;;13.87;11.23;;;6.40;18.00;7.50;101388.00;;;;4909194;29;20845;-77
2021/04/24 03:54:39;;;;;;;20.10;12.10;;;6.40;18.10;7.50;101396.00;;;;4922751;29;20468;-75
2021/04/24 03:57:07;;;;;;;18.20;12.10;;;6.40;18.30;7.50;101401.00;;;;4907764;29;20534;-77
2021/04/24 03:59:34;;;;;;;17.60;12.93;;;6.40;18.10;7.50;101394.00;;;;4905997;29;20487;-75
2021/04/24 04:02:02;;;;;;;19.10;12.43;;;6.40;18.30;7.50;67910.00;;;;4908035;29;20457;-75
2021/04/24 04:04:29;;;;;;;22.17;12.60;;;6.30;18.60;7.50;101396.00;;;;4907733;29;20470;-74
2021/04/24 04:06:57;;;;;;;18.67;11.83;;;6.30;18.70;7.40;101390.00;;;;4907871;29;20470;-75
2021/04/24 04:09:25;;;;;;;18.73;12.60;;;6.30;18.70;7.40;101400.00;;;;4909297;29;20639;-76
2021/04/24 04:11:52;;;;;;;18.60;12.83;;;6.30;18.90;7.40;101398.00;;;;4911180;29;20486;-76
2021/04/24 04:14:20;;;;;;;19.40;12.10;;;6.20;19.10;7.30;101393.00;;;;4908990;29;21274;-75
2021/04/24 04:16:47;;;;;;;15.03;10.83;;;6.30;19.00;7.30;101400.00;;;;4907606;29;20520;-74
2021/04/24 04:19:14;;;;;;;16.23;12.00;;;6.20;19.10;7.30;101391.00;;;;4905940;29;20940;-75
2021/04/24 04:21:43;;;;;;;15.67;12.67;;;6.20;19.30;7.30;101396.00;;;;4907647;29;20821;-75
2021/04/24 04:24:11;;;;;;;17.47;11.87;;;6.20;19.10;217.30;159835.00;;;;4922658;29;21019;-79
2021/04/24 04:26:39;;;;;;;15.20;12.30;;;6.20;19.10;7.30;101398.00;;;;4908794;29;20466;-76
2021/04/24 04:29:06;;;;;;;15.67;12.20;;;6.20;18.90;7.40;101415.00;;;;4906403;29;20478;-76
2021/04/24 04:31:33;;;;;;;20.50;12.90;;;6.20;19.20;7.40;101384.00;;;;4908805;29;20963;-76
2021/04/24 04:34:03;;;;;;;16.93;11.97;;;6.20;19.30;7.40;101398.00;;;;4906779;29;21091;-76
2021/04/24 04:36:30;;;;;;;17.07;11.47;;;6.20;19.20;7.50;101404.00;;;;4906307;29;21094;-75
2021/04/24 04:38:57;;;;;;;15.80;11.73;;;6.30;19.20;7.50;101401.00;;;;4905310;29;20462;-75
2021/04/24 04:41:30;;;;;;;17.23;12.83;;;6.30;18.80;7.50;101400.00;;;;4921719;29;20463;-75
2021/04/24 04:43:58;;;;;;;15.10;11.83;;;6.40;18.60;7.50;101355.00;;;;4907662;29;20462;-75
2021/04/24 04:46:25;;;;;;;15.30;12.17;;;6.40;18.40;217.30;159960.00;;;;4906727;29;20488;-75
2021/04/24 04:48:58;;;;;;;16.20;12.37;;;6.40;18.30;7.60;101400.00;;;;4907489;29;20484;-76
2021/04/24 04:51:25;;;;;;;16.57;12.43;;;6.40;18.20;7.70;101402.00;;;;4922633;29;21471;-76
2021/04/24 04:53:53;;;;;;;15.17;11.97;;;6.50;18.00;7.80;101395.00;;;;4907808;29;20462;-76
2021/04/24 04:56:20;;;;;;;19.47;12.00;;;6.50;17.90;7.80;101399.00;;;;4907080;29;20488;-76
2021/04/24 04:58:47;;;;;;;19.80;12.70;;;6.60;17.40;7.90;68008.00;;;;4923275;29;20482;-76
2021/04/24 05:01:17;;;;;;;18.40;12.93;;;6.70;17.10;8.00;101400.00;;;;4908554;29;21574;-76
2021/04/24 05:03:45;;;;;;;17.00;11.77;;;6.80;16.70;8.10;101399.00;;;;4922874;29;20481;-76
2021/04/24 05:06:13;;;;;;;21.20;12.80;;;6.80;16.20;8.10;101396.00;;;;4924161;29;20478;-76
2021/04/24 05:08:40;;;;;;;16.07;11.40;;;6.90;15.70;8.20;101396.00;;;;4909729;29;20473;-76
2021/04/24 05:11:08;;;;;;;18.80;12.83;;;7.00;15.30;8.30;101406.00;;;;4907798;29;20869;-76
2021/04/24 05:13:35;;;;;;;15.10;12.20;;;7.00;15.20;8.30;101416.00;;;;4908502;29;20458;-76
2021/04/24 05:16:03;;;;;;;15.60;11.87;;;7.10;15.00;8.40;101412.00;;;;4909617;29;20564;-76
2021/04/24 05:18:31;;;;;;;16.37;12.23;;;7.20;14.80;8.50;101400.00;;;;4928527;29;20558;-76
2021/04/24 05:20:59;;;;;;;15.40;11.90;;;7.20;14.20;8.60;101397.00;;;;4927373;29;20509;-76
2021/04/24 05:23:27;;;;;;;15.40;10.87;;;7.40;13.90;8.70;101417.00;;;;4929729;29;20468;-76
2021/04/24 05:25:54;;;;;;;13.97;11.07;;;7.40;13.30;8.70;101416.00;;;;4945311;29;20557;-76
2021/04/24 05:28:22;;;;;;;20.50;12.07;;;7.40;13.30;8.70;68188.00;;;;4929392;29;20473;-77
2021/04/24 05:30:49;;;;;;;16.70;11.00;;;7.50;12.80;8.70;101414.00;;;;4934093;29;20615;-76
2021/04/24 05:33:16;;;;;;;15.27;11.23;;;7.50;12.60;8.70;101419.00;;;;4952607;29;20510;-76
2021/04/24 05:35:45;;;;;;;17.90;12.00;;;7.50;12.30;8.80;101413.00;;;;4935183;29;20561;-76
2021/04/24 05:38:12;;;;;;;15.00;10.90;;;7.60;12.50;8.80;101409.00;;;;4927554;29;20493;-76
2021/04/24 05:40:39;;;;;;;14.40;10.40;;;7.60;12.30;8.90;101416.00;;;;4919263;29;20526;-76
2021/04/24 05:43:07;;;;;;;16.37;11.03;;;7.70;12.10;8.90;101414.00;;;;4916598;29;20469;-76
2021/04/24 05:45:34;;;;;;;14.57;10.20;;;7.70;11.50;8.90;101415.00;;;;4914845;29;20477;-76
2021/04/24 05:48:01;;;;;;;13.00;8.83;;;7.80;11.30;9.00;101424.00;;;;4910214;29;20455;-76
2021/04/24 05:50:29;;;;;;;13.00;10.60;;;7.80;11.20;9.10;101422.00;;;;4908712;29;21329;-76
2021/04/24 05:52:57;;;;;;;17.50;10.80;;;7.90;11.20;217.30;160603.00;;;;4909104;29;20458;-76
2021/04/24 05:55:24;;;;;;;15.17;10.80;;;8.00;10.80;9.20;101419.00;;;;4901877;29;20486;-76
2021/04/24 05:57:52;;;;;;;15.87;11.23;;;8.00;10.80;9.30;101417.00;;;;4941248;29;20473;-76
2021/04/24 06:00:22;;;;;;;13.30;9.27;;;8.10;10.60;9.30;101427.00;;;;4943524;29;20835;-76
2021/04/24 06:02:50;;;;;;;15.30;10.30;;;8.20;10.30;9.30;101125.00;;;;4941573;29;20554;-77
2021/04/24 06:05:18;;;;;;;18.63;11.33;;;8.20;9.90;9.30;101432.00;;;;4923020;29;20509;-76
2021/04/24 06:07:46;;;;;;;15.20;11.20;;;8.30;10.10;9.40;101431.00;;;;4929454;29;20966;-76
2021/04/24 06:10:18;;;;;;;16.37;10.83;;;8.30;9.60;9.60;101424.00;;;;4927389;29;20517;-76
2021/04/24 06:12:47;;;;;;;15.47;11.93;;;8.40;9.70;9.60;101425.00;;;;4930241;29;20560;-76
2021/04/24 06:15:16;;;;;;;14.90;11.10;;;8.50;9.30;9.60;101429.00;;;;4932772;29;20573;-76
2021/04/24 06:17:44;;;;;;;18.30;12.00;;;8.50;9.00;9.70;101442.00;;;;4937765;29;20444;-76
2021/04/24 06:20:13;;;;;;;17.60;12.83;;;8.60;8.90;217.30;160934.00;;;;4918614;29;20486;-76
2021/04/24 06:22:41;;;;;;;12.97;11.60;;;8.60;8.50;9.90;101448.00;;;;4917331;29;20493;-76
2021/04/24 06:25:11;;;;;;;13.63;11.47;;;8.70;8.50;10.00;68487.00;;;;4924632;29;20477;-76
2021/04/24 06:27:40;;;;;;;17.67;10.77;;;8.80;8.30;10.20;101423.00;;;;4910376;29;20517;-76
2021/04/24 06:30:12;;;;;;;15.20;10.80;;;9.00;7.90;10.40;101451.00;;;;4924553;29;21031;-76
2021/04/24 06:32:40;;;;;;;16.30;11.43;;;9.10;7.20;10.30;101450.00;;;;4924503;29;20869;-76
2021/04/24 06:35:10;;;;;;;14.30;9.70;;;9.10;6.80;10.20;101433.00;;;;4908337;29;20513;-76
2021/04/24 06:37:38;;;;;;;12.67;10.33;;;9.10;6.70;10.20;101436.00;;;;4908699;29;20451;-77
2021/04/24 06:40:08;;;;;;;18.40;11.80;;;9.10;7.10;10.40;101429.00;;;;4912868;29;20466;-75
2021/04/24 06:42:35;;;;;;;15.70;11.57;;;9.20;6.60;10.40;101435.00;;;;4926454;29;20474;-76
2021/04/24 06:45:07;;;;;;;13.80;10.93;;;9.30;6.30;10.60;101433.00;;;;4924720;29;20482;-78
2021/04/24 06:47:34;;;;;;;14.80;10.97;;;9.40;6.80;10.70;101439.00;;;;4916147;29;20494;-77
2021/04/24 06:50:04;;;;;;;14.77;11.03;;;9.50;6.40;10.60;68625.00;;;;4919514;29;20476;-76
2021/04/24 06:52:32;;;;;;;16.00;11.53;;;9.50;5.70;10.60;68600.00;;;;4915234;29;20553;-77
2021/04/24 06:54:59;;;;;;;19.20;13.70;;;9.50;5.80;10.70;101442.00;;;;4914675;29;20484;-77
2021/04/24 06:57:27;;;;;;;15.63;11.10;;;9.60;5.90;10.60;68600.00;;;;4913819;29;20457;-78
2021/04/24 06:59:55;;;;;;;14.30;10.53;;;9.50;5.10;10.60;101433.00;;;;4908572;29;20903;-75
2021/04/24 07:02:23;;;;;;;14.63;9.83;;;9.50;4.90;10.60;101433.00;;;;4912884;29;20473;-77
2021/04/24 07:04:51;;;;;;;14.77;11.27;;;9.50;4.90;10.70;101422.00;;;;4913212;29;20501;-76
2021/04/24 07:07:19;;;;;;;15.40;10.00;;;9.60;4.70;10.90;101438.00;;;;4911576;29;20465;-77
2021/04/24 07:09:46;;;;;;;12.80;10.00;;;9.70;4.40;10.80;101423.00;;;;4905696;29;20516;-76
2021/04/24 07:12:14;;;;;;;13.00;9.23;;;9.60;4.00;10.80;101433.00;;;;4911579;29;20468;-77
2021/04/24 07:14:42;;;;;;;17.80;11.67;;;9.60;3.90;10.80;68651.00;;;;4913338;29;20475;-77
2021/04/24 07:17:10;;;;;;;13.20;11.40;;;9.80;4.40;10.80;101425.00;;;;4912922;29;20472;-77
2021/04/24 07:19:38;;;;;;;27.40;11.63;;;9.70;3.90;10.90;68672.00;;;;4926593;29;20489;-76
2021/04/24 07:22:06;;;;;;;15.57;10.37;;;9.80;4.10;52.70;161323.00;;;;4915723;29;20490;-76
2021/04/24 07:24:33;;;;;;;17.23;10.70;;;9.80;4.10;11.00;101424.00;;;;4906464;29;20466;-77
2021/04/24 07:27:01;;;;;;;14.27;8.07;;;9.90;3.50;11.10;68728.00;;;;4912352;29;20561;-79
2021/04/24 07:29:29;;;;;;;14.40;8.90;;;9.90;3.20;11.00;101415.00;;;;4900658;29;20573;-77
2021/04/24 07:31:56;;;;;;;14.40;10.80;;;10.00;2.60;11.40;101439.00;;;;4911343;29;20481;-77
2021/04/24 07:34:24;;;;;;;14.10;9.83;;;10.20;2.30;11.60;68817.00;;;;4917720;29;21338;-77
2021/04/24 07:36:52;;;;;;;10.00;7.63;;;10.40;2.10;11.80;101422.00;;;;4911538;29;20465;-77
2021/04/24 07:39:20;;;;;;;9.17;6.00;;;10.70;1.00;11.50;68812.00;;;;4912977;29;20814;-78
2021/04/24 07:41:47;;;;;;;14.80;9.93;;;10.50;1.00;11.80;101418.00;;;;4927001;29;20589;-79
2021/04/24 07:44:14;;;;;;;12.93;8.20;;;10.60;1.00;11.90;101426.00;;;;4909779;29;20486;-75
2021/04/24 07:46:42;;;;;;;12.90;8.93;;;10.80;1.00;12.00;68922.00;;;;4910093;29;22118;-77
2021/04/24 07:49:09;;;;;;;14.23;7.77;;;10.80;1.00;12.30;101432.00;;;;4908390;29;20450;-78
2021/04/24 07:51:37;;;;;;;14.93;9.00;;;11.10;1.00;12.30;101435.00;;;;4909385;29;20466;-77
2021/04/24 07:54:06;;;;;;;13.00;9.30;;;11.20;1.00;12.40;101421.00;;;;4908966;29;20577;-77
2021/04/24 07:56:33;;;;;;;9.90;8.20;;;11.20;1.00;12.20;101420.00;;;;4900652;29;20574;-77
2021/04/24 07:59:00;;;;;;;12.37;9.10;;;11.20;1.00;12.30;101427.00;;;;4908869;29;20599;-78
2021/04/24 08:01:28;;;;;;;10.87;7.70;;;11.10;1.00;12.10;101425.00;;;;4908498;29;20493;-77
2021/04/24 08:03:55;;;;;;;14.33;10.43;;;11.00;1.00;11.80;101421.00;;;;4923607;29;20469;-77
2021/04/24 08:06:23;;;;;;;12.83;8.03;;;10.80;1.00;11.80;101410.00;;;;4909644;29;20996;-77
2021/04/24 08:08:50;;;;;;;14.10;9.47;;;10.80;1.00;11.80;101426.00;;;;4923328;29;20466;-77
2021/04/24 08:11:19;;;;;;;11.27;7.93;;;10.80;1.00;11.90;101427.00;;;;4909144;29;20553;-78
2021/04/24 08:13:46;;;;;;;11.97;8.50;;;10.80;1.00;11.90;101427.00;;;;4911204;29;20553;-77
2021/04/24 08:16:14;;;;;;;13.20;7.80;;;10.90;1.00;52.70;161878.00;;;;4907903;29;20482;-77
2021/04/24 08:18:42;;;;;;;8.80;7.23;;;11.00;1.00;12.10;101411.00;;;;4908011;29;20537;-75
2021/04/24 08:21:10;;;;;;;12.10;8.40;;;11.00;1.00;11.90;101415.00;;;;4908918;29;20577;-76
2021/04/24 08:23:37;;;;;;;20.33;8.67;;;11.00;1.00;12.30;68988.00;;;;4914332;29;20466;-76
2021/04/24 08:26:05;;;;;;;12.83;7.17;;;11.20;1.00;12.40;101420.00;;;;4923527;29;20496;-75
2021/04/24 08:28:33;;;;;;;9.70;6.33;;;11.40;1.00;12.50;101431.00;;;;4906970;29;20990;-75
2021/04/24 08:31:01;;;;;;;12.07;7.70;;;11.60;1.00;12.60;101423.00;;;;4921406;29;20478;-76
2021/04/24 08:33:29;;;;;;;14.73;6.80;;;11.70;1.00;12.60;69069.00;;;;4908347;29;20529;-75
2021/04/24 08:35:57;;;;;;;11.10;7.63;;;11.80;1.00;12.90;101427.00;;;;4907129;29;20470;-76
2021/04/24 08:38:24;;;;;;;7.53;6.27;;;12.00;1.00;13.00;101420.00;;;;4907322;29;20584;-76
2021/04/24 08:40:52;;;;;;;12.33;6.87;;;12.10;1.00;12.80;101417.00;;;;4908368;29;20454;-78
2021/04/24 08:43:20;;;;;;;8.37;6.67;;;11.90;1.00;12.70;101423.00;;;;4908107;29;20544;-76
2021/04/24 08:45:49;;;;;;;9.97;5.93;;;11.90;1.00;12.70;101409.00;;;;4922846;29;20576;-77
2021/04/24 08:48:20;;;;;;;9.93;6.67;;;11.80;1.00;12.60;101409.00;;;;4913947;29;20502;-77
2021/04/24 08:50:48;;;;;;;11.73;6.87;;;11.80;1.00;12.70;101415.00;;;;4906714;29;20514;-77
2021/04/24 08:53:18;;;;;;;10.47;6.43;;;11.90;1.00;12.60;101399.00;;;;4907780;29;20956;-78
2021/04/24 08:55:47;;;;;;;9.00;6.63;;;11.90;1.00;12.80;101413.00;;;;4907256;29;20549;-76
2021/04/24 08:58:15;;;;;;;14.07;6.77;;;12.00;1.00;12.80;101407.00;;;;4907906;29;20545;-76
2021/04/24 09:00:45;;;;;;;11.40;5.93;;;12.00;1.00;13.00;101393.00;;;;4905429;29;20467;-76
2021/04/24 09:03:19;;;;;;;13.33;7.70;;;12.10;1.00;13.00;101395.00;;;;4906898;29;20541;-76
2021/04/24 09:05:47;;;;;;;11.50;6.00;;;12.30;1.00;13.10;101406.00;;;;4898986;29;21008;-76
2021/04/24 09:08:24;;;;;;;10.70;7.03;;;12.40;1.00;13.00;101393.00;;;;4898701;29;20550;-80
2021/04/24 09:10:53;;;;;;;10.60;7.70;;;12.30;1.00;13.10;101406.00;;;;4908030;29;20477;-76
2021/04/24 09:13:22;;;;;;;9.80;6.47;;;12.40;1.00;13.10;101388.00;;;;4905995;29;20473;-76
2021/04/24 09:15:51;;;;;;;9.63;6.50;;;12.30;1.00;13.20;101396.00;;;;4908789;29;20478;-76
2021/04/24 09:18:21;;;;;;;10.87;6.40;;;12.50;1.00;13.20;101397.00;;;;4922297;29;20494;-77
2021/04/24 09:20:52;;;;;;;8.00;6.07;;;12.50;1.00;13.30;101393.00;;;;4907214;29;21041;-76
2021/04/24 09:23:21;;;;;;;9.93;7.90;;;12.60;1.00;13.50;101384.00;;;;4908465;29;20827;-76
2021/04/24 09:25:56;;;;;;;11.30;6.43;;;12.80;1.00;13.70;101387.00;;;;4907793;29;20561;-76
2021/04/24 09:28:31;;;;;;;12.73;7.70;;;13.00;1.00;13.60;101396.00;;;;4921962;29;20536;-77
2021/04/24 09:31:00;;;;;;;9.90;6.13;;;13.00;1.00;13.70;101373.00;;;;4921307;29;20481;-77
2021/04/24 09:33:34;;;;;;;10.60;6.07;;;13.00;1.00;13.80;101374.00;;;;4921454;29;20576;-76
2021/04/24 09:36:02;;;;;;;10.10;7.40;;;13.10;1.00;14.00;101381.00;;;;4911913;29;20473;-75
2021/04/24 09:38:31;;;;;;;9.40;6.37;;;13.30;1.00;14.00;101380.00;;;;4925605;29;20473;-76
2021/04/24 09:41:18;;;;;;;11.10;8.40;;;13.30;1.00;52.70;162763.00;;;;4908400;29;20926;-75
2021/04/24 09:44:00;;;;;;;9.13;7.00;;;13.40;1.00;14.30;101377.00;;;;4909306;29;20533;-76
2021/04/24 09:46:32;;;;;;;11.60;8.03;;;13.60;1.00;14.40;101379.00;;;;4923525;29;20477;-75
2021/04/24 09:49:31;;;;;;;9.90;7.40;;;13.70;1.00;14.50;101370.00;;;;4908044;29;21317;-75
2021/04/24 09:52:02;;;;;;;12.23;7.63;;;13.80;1.00;14.60;101375.00;;;;4915460;29;20473;-75
2021/04/24 09:54:39;;;;;;;10.10;6.53;;;13.90;1.00;14.80;101343.00;;;;4922905;29;20458;-77
2021/04/24 09:57:11;;;;;;;12.03;8.10;;;14.10;1.00;15.00;101378.00;;;;4908332;29;20514;-75
2021/04/24 09:59:52;;;;;;;13.30;8.10;;;14.20;1.00;15.00;101369.00;;;;4904955;29;20458;-76
2021/04/24 10:02:29;;;;;;;9.50;7.30;;;14.20;1.00;14.80;101364.00;;;;4907122;29;20470;-75
2021/04/24 10:05:10;;;;;;;12.07;9.07;;;14.10;1.00;14.80;101364.00;;;;4906847;29;20597;-76
2021/04/24 10:07:39;;;;;;;13.10;8.97;;;14.10;1.00;15.00;101358.00;;;;4906942;29;20462;-76
2021/04/24 10:10:09;;;;;;;14.10;9.37;;;14.20;1.00;15.10;101361.00;;;;4905657;29;20493;-75
2021/04/24 10:12:38;;;;;;;13.90;10.13;;;14.30;1.00;15.10;101344.00;;;;4906646;29;20462;-76
2021/04/24 10:15:07;;;;;;;12.57;9.37;;;14.30;1.00;15.00;101362.00;;;;4913928;29;21008;-76
2021/04/24 10:17:35;;;;;;;12.27;8.47;;;14.30;1.00;15.00;101362.00;;;;4914075;29;20719;-76
2021/04/24 10:20:05;;;;;;;12.13;8.80;;;14.40;1.00;15.10;101347.00;;;;4905293;29;20888;-75
2021/04/24 10:22:34;;;;;;;11.83;9.30;;;14.30;1.00;15.40;101355.00;;;;4899088;29;20470;-76
2021/04/24 10:25:02;;;;;;;11.10;8.53;;;14.70;1.00;15.70;101348.00;;;;4906810;29;20564;-75
2021/04/24 10:27:35;;;;;;;12.67;8.40;;;15.00;1.00;15.60;101342.00;;;;4906955;29;20464;-76
2021/04/24 10:30:04;;;;;;;13.73;8.63;;;15.00;1.00;15.80;101346.00;;;;4921421;29;20473;-75
2021/04/24 10:32:32;;;;;;;14.73;9.57;;;15.20;1.00;52.70;163546.00;;;;4898728;29;21163;-76
2021/04/24 10:34:59;;;;;;;15.23;9.70;;;15.20;1.00;16.00;101333.00;;;;4919377;29;20557;-76
2021/04/24 10:37:27;;;;;;;11.97;9.60;;;15.30;1.00;16.00;69825.00;;;;4906351;29;20492;-76
2021/04/24 10:40:02;;;;;;;13.67;9.43;;;15.20;1.00;16.10;101332.00;;;;4922699;29;20560;-79
2021/04/24 10:42:32;;;;;;;15.77;10.00;;;15.40;1.00;16.10;101333.00;;;;4908041;29;20466;-77
2021/04/24 10:45:06;;;;;;;12.73;8.60;;;15.40;1.00;16.00;101311.00;;;;4910525;29;20532;-76
2021/04/24 10:47:55;;;;;;;11.60;9.13;;;15.40;1.00;16.20;101322.00;;;;4910815;29;20465;-77
2021/04/24 10:50:31;;;;;;;14.73;9.30;;;15.50;1.00;16.30;101318.00;;;;4900428;29;20556;-77
2021/04/24 10:53:21;;;;;;;13.80;10.90;;;15.60;1.00;16.30;101318.00;;;;4907116;29;20832;-77
2021/04/24 10:55:51;;;;;;;14.00;9.50;;;15.50;1.00;16.40;101324.00;;;;4907748;29;20489;-77